Welcome to Northern Hawkes Bay. New Zealand.
PWS Header
      nz Flag



Hit Counter


W3C Valid W3C Valid logo


    Wairoa

Select any of the Stations below to visit their websites.










Historic Data from Weather Underground
Select the location of interest below. Wairoa is the default. Please have patience, this Data is slow to load in.
Northern Hawkes Bay Historical Data
Daily Summary for May 3, 2017 Units:  English    Metric   Both
« Previous Day
Next Day »
Daily Weekly Monthly Yearly Custom
  High: Low: Average:
Temperature: 68 °F 40.5 °F 54.3 °F
Dew Point: 50.7 °F 40.3 °F 45.7 °F
Humidity: 99% 50% 75%
Wind Speed: 15.9mph 0mph 4.4mph
Wind Gust: 24.4mph - -
Wind- - NW
Pressure: 30.2 in 29.8 in -
Precipitation: 0 in    
Historical Graphs
 
 
Tabular Data for May 3, 2017
Time Temperature Dew Point Pressure Wind Wind Speed Wind Gust Humidity Rainfall Rate (Hourly) solar
00:03 44.6 °F 43.9 °F 30.1 in NNW 2.2 mph 3.8 mph 97% 0 in 0 W/m2
00:08 44.2 °F 43.7 °F 30.1 in NW 3.1 mph 4.5 mph 98% 0 in 0 W/m2
00:13 44.2 °F 43.7 °F 30.2 in NW 3.8 mph 5.4 mph 98% 0 in 0 W/m2
00:18 44.2 °F 43.7 °F 30.1 in NW 3.1 mph 6 mph 98% 0 in 0 W/m2
00:23 44.1 °F 43.5 °F 30.1 in NW 3.8 mph 6.9 mph 98% 0 in 0 W/m2
00:28 44.1 °F 43.5 °F 30.1 in NW 3.8 mph 6.9 mph 98% 0 in 0 W/m2
00:33 44.2 °F 43.7 °F 30.1 in NNW 4.5 mph 6.9 mph 98% 0 in 0 W/m2
00:38 44.2 °F 43.7 °F 30.1 in NNW 3.8 mph 6.9 mph 98% 0 in 0 W/m2
00:43 44.1 °F 43.5 °F 30.1 in NW 3.1 mph 6.9 mph 98% 0 in 0 W/m2
00:48 44.1 °F 43.5 °F 30.1 in NNW 3.1 mph 5.4 mph 98% 0 in 0 W/m2
00:53 43.9 °F 43.3 °F 30.1 in NNW 3.1 mph 5.4 mph 98% 0 in 0 W/m2
00:58 43.7 °F 43.2 °F 30.1 in NW 0.7 mph 5.4 mph 98% 0 in 0 W/m2
01:03 43.7 °F 43.2 °F 30.1 in NW 0.7 mph 6 mph 98% 0 in 0 W/m2
01:08 43.5 °F 43 °F 30.1 in Calm   6 mph 98% 0 in 0 W/m2
01:13 43.5 °F 43 °F 30.1 in Calm   2.2 mph 98% 0 in 0 W/m2
01:18 43.3 °F 42.8 °F 30.1 in NW 2.2 mph 4.5 mph 98% 0 in 0 W/m2
01:23 43.2 °F 42.6 °F 30.1 in NW 2.2 mph 4.5 mph 98% 0 in 0 W/m2
01:28 43.2 °F 42.6 °F 30.1 in NW 3.1 mph 4.5 mph 98% 0 in 0 W/m2
01:33 43.3 °F 42.8 °F 30.1 in NNW 2.2 mph 6 mph 98% 0 in 0 W/m2
01:38 43.2 °F 42.6 °F 30.1 in NNW 4.5 mph 6 mph 98% 0 in 0 W/m2
01:43 43.2 °F 42.6 °F 30.1 in NNW 3.1 mph 6 mph 98% 0 in 0 W/m2
01:48 43.2 °F 42.6 °F 30.1 in NNW 3.8 mph 6 mph 98% 0 in 0 W/m2
01:53 43 °F 42.4 °F 30.1 in NNW 3.8 mph 6.9 mph 98% 0 in 0 W/m2
01:58 42.8 °F 42.3 °F 30.1 in NW 1.6 mph 6.9 mph 98% 0 in 0 W/m2
02:08 42.6 °F 42.4 °F 30.1 in North 4.5 mph 6 mph 99% 0 in 0 W/m2
02:13 42.6 °F 42.4 °F 30.1 in NNW 3.8 mph 6.9 mph 99% 0 in 0 W/m2
02:18 42.4 °F 42.3 °F 30.1 in NW 4.5 mph 6.9 mph 99% 0 in 0 W/m2
02:23 42.4 °F 42.3 °F 30.1 in NW 3.8 mph 6.9 mph 99% 0 in 0 W/m2
02:28 42.3 °F 42.1 °F 30.1 in NW 3.1 mph 6.9 mph 99% 0 in 0 W/m2
02:33 42.3 °F 42.1 °F 30.1 in NNW 2.2 mph 5.4 mph 99% 0 in 0 W/m2
02:38 42.3 °F 42.1 °F 30.1 in NNW 1.6 mph 5.4 mph 99% 0 in 0 W/m2
02:43 42.3 °F 42.1 °F 30.1 in NNW 0.7 mph 5.4 mph 99% 0 in 0 W/m2
02:48 42.3 °F 42.1 °F 30.1 in North 1.6 mph 4.5 mph 99% 0 in 0 W/m2
02:53 42.1 °F 41.7 °F 30.1 in North 0.7 mph 3.8 mph 99% 0 in 0 W/m2
02:58 41.9 °F 41.5 °F 30.1 in NW 3.1 mph 4.5 mph 99% 0 in 0 W/m2
03:03 41.9 °F 41.5 °F 30.1 in NNW 3.8 mph 5.4 mph 99% 0 in 0 W/m2
03:08 42.1 °F 41.7 °F 30.1 in NW 1.6 mph 6 mph 99% 0 in 0 W/m2
03:13 41.9 °F 41.5 °F 30.1 in NW 1.6 mph 6 mph 99% 0 in 0 W/m2
03:18 41.5 °F 41.4 °F 30.1 in NW 2.2 mph 5.4 mph 99% 0 in 0 W/m2
03:23 41.7 °F 41.5 °F 30.1 in NW 3.1 mph 8.3 mph 99% 0 in 0 W/m2
03:28 41.7 °F 41.5 °F 30.1 in NNW 2.2 mph 8.3 mph 99% 0 in 0 W/m2
03:33 41.7 °F 41.5 °F 30.1 in NNW 3.8 mph 6.9 mph 99% 0 in 0 W/m2
03:38 41.9 °F 41.5 °F 30.1 in NNW 3.1 mph 6 mph 99% 0 in 0 W/m2
03:43 41.7 °F 41.5 °F 30.1 in NW 3.8 mph 6.9 mph 99% 0 in 0 W/m2
03:48 41.7 °F 41.5 °F 30.1 in NW 4.5 mph 8.3 mph 99% 0 in 0 W/m2
03:53 41.9 °F 41.5 °F 30.1 in NW 3.1 mph 8.3 mph 99% 0 in 0 W/m2
03:58 41.9 °F 41.5 °F 30.1 in NNW 5.4 mph 7.6 mph 99% 0 in 0 W/m2
04:03 41.9 °F 41.5 °F 30.1 in NW 3.8 mph 7.6 mph 99% 0 in 0 W/m2
04:08 41.5 °F 41.4 °F 30.1 in NW 3.8 mph 9.2 mph 99% 0 in 0 W/m2
04:13 41.4 °F 41.2 °F 30.1 in NW 4.5 mph 9.2 mph 99% 0 in 0 W/m2
04:18 41.2 °F 40.8 °F 30.1 in NNW 4.5 mph 9.2 mph 99% 0 in 0 W/m2
04:23 41.2 °F 40.8 °F 30.1 in NW 4.5 mph 9.8 mph 99% 0 in 0 W/m2
04:28 41 °F 40.6 °F 30.1 in NW 3.8 mph 9.8 mph 99% 0 in 0 W/m2
04:33 41 °F 40.6 °F 30.1 in NW 3.8 mph 8.3 mph 99% 0 in 0 W/m2
04:38 40.8 °F 40.6 °F 30.1 in NNW 3.8 mph 8.3 mph 99% 0 in 0 W/m2
04:43 40.8 °F 40.6 °F 30.1 in NNW 3.1 mph 8.3 mph 99% 0 in 0 W/m2
04:48 40.8 °F 40.6 °F 30.1 in NNW 0.7 mph 8.3 mph 99% 0 in 0 W/m2
04:53 41 °F 40.6 °F 30.1 in NW 4.5 mph 7.6 mph 99% 0 in 0 W/m2
04:58 41 °F 40.6 °F 30.1 in NW 3.1 mph 7.6 mph 99% 0 in 0 W/m2
05:03 41 °F 40.6 °F 30.1 in NW 3.8 mph 8.3 mph 99% 0 in 0 W/m2
05:08 41 °F 40.6 °F 30.1 in NW 5.4 mph 8.3 mph 99% 0 in 0 W/m2
05:13 41.2 °F 40.8 °F 30.1 in NNW 4.5 mph 8.3 mph 99% 0 in 0 W/m2
05:18 41 °F 40.6 °F 30.1 in NW 4.5 mph 8.3 mph 99% 0 in 0 W/m2
05:23 41 °F 40.6 °F 30.1 in NW 5.4 mph 8.3 mph 99% 0 in 0 W/m2
05:28 41 °F 40.6 °F 30.1 in NNW 5.4 mph 8.3 mph 99% 0 in 0 W/m2
05:33 41 °F 40.6 °F 30.1 in NNW 4.5 mph 7.6 mph 99% 0 in 0 W/m2
05:38 41 °F 40.6 °F 30.1 in NNW 3.8 mph 9.2 mph 99% 0 in 0 W/m2
05:43 40.8 °F 40.6 °F 30.1 in NNW 3.8 mph 9.2 mph 99% 0 in 0 W/m2
05:48 40.6 °F 40.5 °F 30.1 in NNW 3.1 mph 6.9 mph 99% 0 in 0 W/m2
05:53 40.6 °F 40.5 °F 30.1 in NW 4.5 mph 7.6 mph 99% 0 in 0 W/m2
05:58 40.5 °F 40.3 °F 30.1 in NW 4.5 mph 7.6 mph 99% 0 in 0 W/m2
06:03 40.5 °F 40.3 °F 30.1 in WNW 4.5 mph 7.6 mph 99% 0 in 0 W/m2
06:08 40.6 °F 40.5 °F 30.1 in NW 5.4 mph 9.2 mph 99% 0 in 0 W/m2
06:13 40.8 °F 40.6 °F 30.1 in NNW 6 mph 9.2 mph 99% 0 in 0 W/m2
06:18 40.8 °F 40.6 °F 30.1 in NNW 3.8 mph 9.2 mph 99% 0 in 0 W/m2
06:23 40.8 °F 40.6 °F 30.1 in NNW 4.5 mph 9.2 mph 99% 0 in 0 W/m2
06:28 40.6 °F 40.5 °F 30.1 in NNW 5.4 mph 9.2 mph 99% 0 in 0 W/m2
06:33 40.8 °F 40.6 °F 30.1 in NNW 5.4 mph 7.6 mph 99% 0 in 0 W/m2
06:38 40.8 °F 40.6 °F 30.1 in NNW 4.5 mph 8.3 mph 99% 0 in 0 W/m2
06:43 40.8 °F 40.6 °F 30.1 in NW 4.5 mph 9.2 mph 99% 0 in 0 W/m2
06:48 40.8 °F 40.6 °F 30.1 in NW 4.5 mph 9.2 mph 99% 0 in 1 W/m2
06:53 41 °F 40.6 °F 30.1 in NW 3.1 mph 9.2 mph 99% 0 in 2 W/m2
06:58 40.8 °F 40.6 °F 30.1 in NW 3.8 mph 9.2 mph 99% 0 in 4 W/m2
07:03 40.8 °F 40.6 °F 30.1 in NW 5.4 mph 8.3 mph 99% 0 in 7 W/m2
07:08 40.8 °F 40.6 °F 30.1 in NW 3.8 mph 8.3 mph 99% 0 in 10 W/m2
07:13 40.8 °F 40.6 °F 30.1 in NW 5.4 mph 8.3 mph 99% 0 in 13 W/m2
07:18 41 °F 40.6 °F 30.1 in NNW 3.1 mph 8.3 mph 99% 0 in 58 W/m2
07:23 41.7 °F 41.5 °F 30.1 in NNW 2.2 mph 8.3 mph 99% 0 in 60 W/m2
07:28 42.1 °F 41.7 °F 30.1 in NW 2.2 mph 7.6 mph 99% 0 in 89 W/m2
07:33 42.6 °F 42.4 °F 30.1 in NNW 4.5 mph 7.6 mph 99% 0 in 101 W/m2
07:38 43 °F 42.4 °F 30.1 in NNW 5.4 mph 9.2 mph 98% 0 in 114 W/m2
07:43 43.5 °F 42.6 °F 30.1 in NNW 4.5 mph 9.2 mph 97% 0 in 128 W/m2
07:48 43.7 °F 42.6 °F 30.1 in NW 6.9 mph 8.3 mph 96% 0 in 141 W/m2
07:53 44.1 °F 42.6 °F 30.1 in NW 3.8 mph 8.3 mph 95% 0 in 153 W/m2
07:58 44.6 °F 42.6 °F 30.1 in NW 5.4 mph 8.3 mph 93% 0 in 158 W/m2
08:03 45 °F 42.8 °F 30.1 in NW 6.9 mph 9.8 mph 92% 0 in 177 W/m2
08:08 45.5 °F 43 °F 30.1 in NW 6.9 mph 9.8 mph 91% 0 in 188 W/m2
08:13 46 °F 43.5 °F 30.1 in NNW 4.5 mph 9.8 mph 91% 0 in 199 W/m2
08:18 46.8 °F 43.7 °F 30.1 in NNW 4.5 mph 9.2 mph 89% 0 in 211 W/m2
08:23 47.3 °F 43.9 °F 30.1 in NNW 4.5 mph 9.8 mph 88% 0 in 223 W/m2
08:41 48.4 °F 44.1 °F 30.1 in NNW 3.8 mph 8.3 mph 85% 0 in 275 W/m2
08:46 48.9 °F 44.6 °F 30.1 in NNW 3.1 mph 8.3 mph 85% 0 in 289 W/m2
08:51 49.5 °F 45.1 °F 30.1 in NNW 1.6 mph 6.9 mph 85% 0 in 301 W/m2
08:56 50.4 °F 45.7 °F 30.1 in NW 2.2 mph 5.4 mph 84% 0 in 310 W/m2
09:01 51.4 °F 46.8 °F 30.1 in NW 0.7 mph 4.5 mph 84% 0 in 320 W/m2
09:06 52.3 °F 46.8 °F 30.1 in NNW 3.1 mph 6 mph 81% 0 in 328 W/m2
09:11 52.5 °F 46.2 °F 30 in NNW 0.7 mph 6.9 mph 79% 0 in 334 W/m2
09:16 53.1 °F 46.8 °F 30 in NNW 0.7 mph 6.9 mph 79% 0 in 338 W/m2
09:21 54.3 °F 47.3 °F 30 in North 1.6 mph 6 mph 77% 0 in 337 W/m2
09:26 54.9 °F 47.1 °F 30 in NNW 0.7 mph 4.5 mph 75% 0 in 340 W/m2
09:31 55 °F 47.3 °F 30 in NW 2.2 mph 5.4 mph 75% 0 in 300 W/m2
09:36 55.4 °F 48 °F 30 in NW 0.7 mph 6.9 mph 76% 0 in 172 W/m2
09:41 55.8 °F 48.4 °F 30 in NW 2.2 mph 6.9 mph 76% 0 in 68 W/m2
09:46 56.1 °F 48.7 °F 30 in NW 3.1 mph 6.9 mph 76% 0 in 56 W/m2
09:51 56.7 °F 49.3 °F 30 in NW 3.8 mph 7.6 mph 76% 0 in 53 W/m2
09:56 57.6 °F 49.3 °F 30 in NNW 4.5 mph 9.8 mph 74% 0 in 51 W/m2
10:01 58.5 °F 49.8 °F 30 in NNW 6 mph 9.8 mph 73% 0 in 50 W/m2
10:06 59.2 °F 49.5 °F 30 in NNW 4.5 mph 9.8 mph 70% 0 in 50 W/m2
10:11 59.5 °F 49.5 °F 30 in North 3.1 mph 9.8 mph 69% 0 in 52 W/m2
10:16 59.9 °F 49.6 °F 30 in North 5.4 mph 9.8 mph 69% 0 in 56 W/m2
10:21 60.1 °F 49.5 °F 30 in North 6.9 mph 9.2 mph 68% 0 in 125 W/m2
10:26 60.8 °F 49.8 °F 30 in North 3.1 mph 9.2 mph 67% 0 in 325 W/m2
10:31 61.9 °F 50.4 °F 30 in NNW 4.5 mph 8.3 mph 66% 0 in 355 W/m2
10:36 63 °F 50.2 °F 30 in North 4.5 mph 6.9 mph 63% 0 in 200 W/m2
10:41 63.5 °F 50.7 °F 30 in North 6.9 mph 9.2 mph 63% 0 in 386 W/m2
10:46 63.7 °F 50 °F 30 in North 3.8 mph 9.2 mph 61% 0 in 391 W/m2
10:51 64.4 °F 50.2 °F 30 in NNE 3.8 mph 9.2 mph 60% 0 in 400 W/m2
10:56 64 °F 48.6 °F 30 in NNE 6 mph 10.7 mph 57% 0 in 402 W/m2
11:01 63.9 °F 48.4 °F 30 in North 3.1 mph 10.7 mph 57% 0 in 401 W/m2
11:06 64 °F 49.8 °F 30 in North 6 mph 9.8 mph 60% 0 in 408 W/m2
11:11 64 °F 49.5 °F 30 in North 4.5 mph 9.8 mph 59% 0 in 409 W/m2
11:16 64 °F 48.9 °F 30 in North 6 mph 11.4 mph 58% 0 in 409 W/m2
11:21 64.4 °F 48.9 °F 30 in North 6.9 mph 11.4 mph 57% 0 in 411 W/m2
11:26 65.1 °F 49.5 °F 30 in NNW 6 mph 10.7 mph 57% 0 in 414 W/m2
11:31 65.3 °F 48.7 °F 30 in Calm   9.8 mph 55% 0 in 414 W/m2
11:36 65.1 °F 48.6 °F 30 in NNW 1.6 mph 9.2 mph 55% 0 in 413 W/m2
11:41 65.1 °F 49.1 °F 30 in NW 7.6 mph 13 mph 56% 0 in 411 W/m2
11:46 66 °F 50.4 °F 30 in Calm   13 mph 57% 0 in 414 W/m2
11:51 66.4 °F 48.7 °F 30 in NNW 5.4 mph 13.6 mph 53% 0 in 414 W/m2
11:56 66 °F 48.4 °F 30 in NW 7.6 mph 13.6 mph 53% 0 in 407 W/m2
12:01 66.4 °F 48.2 °F 30 in NW 9.2 mph 13 mph 52% 0 in 394 W/m2
12:06 66.4 °F 48.2 °F 30 in NW 6.9 mph 13 mph 52% 0 in 400 W/m2
12:11 66.7 °F 48 °F 30 in NNW 3.8 mph 13 mph 51% 0 in 392 W/m2
12:16 66.4 °F 47.1 °F 30 in NNW 7.6 mph 13.6 mph 50% 0 in 404 W/m2
12:21 66.2 °F 47.7 °F 30 in NNW 6 mph 13.6 mph 51% 0 in 401 W/m2
12:26 67.3 °F 49.1 °F 30 in NNW 6.9 mph 13.6 mph 52% 0 in 395 W/m2
12:31 67.5 °F 49.3 °F 30 in NNW 4.5 mph 12.1 mph 52% 0 in 390 W/m2
12:36 67.5 °F 48.7 °F 30 in NNW 4.5 mph 13.6 mph 51% 0 in 388 W/m2
12:41 66.9 °F 47.7 °F 30 in NNW 6.9 mph 16.8 mph 50% 0 in 382 W/m2
12:46 67.1 °F 48.9 °F 30 in NNW 3.1 mph 16.8 mph 52% 0 in 369 W/m2
12:51 67.3 °F 49.1 °F 30 in NNW 5.4 mph 13 mph 52% 0 in 367 W/m2
12:56 66.9 °F 48.7 °F 30 in NW 5.4 mph 13.6 mph 52% 0 in 361 W/m2
13:01 66.7 °F 48.6 °F 30 in NW 4.5 mph 15.2 mph 52% 0 in 361 W/m2
13:06 66.6 °F 47.8 °F 30 in NW 9.2 mph 18.3 mph 51% 0 in 345 W/m2
13:11 66.4 °F 47.7 °F 30 in NW 7.6 mph 18.3 mph 51% 0 in 341 W/m2
13:16 66.6 °F 48.4 °F 30 in NW 6 mph 18.3 mph 52% 0 in 333 W/m2
13:21 66.6 °F 47.8 °F 30 in NW 6.9 mph 17.4 mph 51% 0 in 334 W/m2
13:26 67.1 °F 48.9 °F 30 in NNW 6.9 mph 17.4 mph 52% 0 in 326 W/m2
13:31 66.7 °F 48.6 °F 30 in NNW 4.5 mph 13.6 mph 52% 0 in 303 W/m2
13:36 66.6 °F 48.9 °F 29.9 in NNW 9.8 mph 16.8 mph 53% 0 in 259 W/m2
13:41 66.6 °F 49.5 °F 29.9 in NNW 6.9 mph 16.8 mph 54% 0 in 198 W/m2
13:46 67.3 °F 50.2 °F 29.9 in NNW 6.9 mph 16.8 mph 54% 0 in 155 W/m2
13:51 68 °F 50.4 °F 29.9 in NNW 6.9 mph 14.5 mph 53% 0 in 113 W/m2
13:56 67.5 °F 49.3 °F 29.9 in NNW 7.6 mph 15.2 mph 52% 0 in 68 W/m2
14:01 67.3 °F 49.6 °F 29.9 in NNW 11.4 mph 15.2 mph 53% 0 in 61 W/m2
14:06 67.5 °F 50.4 °F 29.9 in NNW 8.3 mph 15.2 mph 54% 0 in 62 W/m2
14:11 67.5 °F 49.8 °F 29.9 in NNW 7.6 mph 15.2 mph 53% 0 in 61 W/m2
14:16 67.5 °F 49.8 °F 29.9 in NNW 6 mph 15.2 mph 53% 0 in 61 W/m2
14:21 67.1 °F 48.9 °F 29.9 in NNW 8.3 mph 15.9 mph 52% 0 in 62 W/m2
14:26 67.5 °F 50.4 °F 29.9 in NNW 13 mph 16.8 mph 54% 0 in 64 W/m2
14:31 67.5 °F 49.8 °F 29.9 in NW 9.2 mph 16.8 mph 53% 0 in 64 W/m2
14:36 67.8 °F 50.2 °F 29.9 in NNW 9.2 mph 16.8 mph 53% 0 in 65 W/m2
14:41 67.5 °F 49.3 °F 29.9 in NNW 10.7 mph 20.6 mph 52% 0 in 63 W/m2
14:46 66.6 °F 49.5 °F 29.9 in NNW 9.2 mph 20.6 mph 54% 0 in 64 W/m2
14:51 66 °F 48.9 °F 29.9 in NNW 15.2 mph 24.4 mph 54% 0 in 64 W/m2
14:56 65.7 °F 49.1 °F 29.9 in NNW 11.4 mph 24.4 mph 55% 0 in 63 W/m2
15:01 65.8 °F 49.3 °F 29.9 in NNW 10.7 mph 24.4 mph 55% 0 in 67 W/m2
15:06 66.2 °F 49.1 °F 29.9 in NW 6 mph 20.6 mph 54% 0 in 93 W/m2
15:11 66.6 °F 48.4 °F 29.9 in North 15.9 mph 20.6 mph 52% 0 in 161 W/m2
15:16 66.2 °F 47.7 °F 29.9 in North 9.2 mph 20.6 mph 51% 0 in 184 W/m2
15:21 66 °F 47.8 °F 29.9 in NNW 4.5 mph 20.6 mph 52% 0 in 176 W/m2
15:26 66.2 °F 46.9 °F 29.9 in NNW 8.3 mph 15.2 mph 50% 0 in 167 W/m2
15:31 66.2 °F 46.9 °F 29.9 in NNW 8.3 mph 15.9 mph 50% 0 in 157 W/m2
15:36 66.4 °F 47.7 °F 29.9 in NNW 13 mph 16.8 mph 51% 0 in 148 W/m2
15:41 66.2 °F 46.9 °F 29.9 in NNW 6 mph 16.8 mph 50% 0 in 137 W/m2
15:46 65.8 °F 46.8 °F 29.9 in NNW 9.8 mph 16.8 mph 50% 0 in 125 W/m2
15:51 64.9 °F 46.9 °F 29.9 in NNW 9.2 mph 13.6 mph 52% 0 in 105 W/m2
15:56 64.2 °F 46.8 °F 29.9 in NW 4.5 mph 13.6 mph 53% 0 in 52 W/m2
16:01 63.5 °F 46.6 °F 29.9 in NNW 4.5 mph 11.4 mph 54% 0 in 46 W/m2
16:05 63 °F 46.6 °F 29.9 in NNW 6 mph 10.7 mph 55% 0 in 42 W/m2
16:11 62.8 °F 46.9 °F 29.9 in NNW 3.8 mph 10.7 mph 56% 0 in 41 W/m2
16:16 62.6 °F 46.8 °F 29.9 in NNW 6.9 mph 12.1 mph 56% 0 in 39 W/m2
16:21 62.2 °F 47.3 °F 29.9 in NW 4.5 mph 13 mph 58% 0 in 46 W/m2
16:26 63.1 °F 47.7 °F 29.9 in NNW 5.4 mph 13 mph 57% 0 in 55 W/m2
16:31 64.2 °F 47.7 °F 29.9 in NNW 8.3 mph 9.8 mph 55% 0 in 65 W/m2
16:36 64 °F 47.7 °F 29.9 in NNW 5.4 mph 9.8 mph 55% 0 in 40 W/m2
16:41 64 °F 47.7 °F 29.9 in NNW 4.5 mph 9.8 mph 55% 0 in 61 W/m2
16:46 64.2 °F 47.7 °F 29.9 in North 4.5 mph 9.8 mph 55% 0 in 56 W/m2
16:51 64 °F 47.1 °F 29.9 in North 4.5 mph 9.2 mph 54% 0 in 44 W/m2
16:56 63.7 °F 47.7 °F 29.9 in North 1.6 mph 9.2 mph 56% 0 in 23 W/m2
17:01 62.4 °F 47.8 °F 29.9 in North 3.1 mph 7.6 mph 59% 0 in 16 W/m2
17:06 61.7 °F 47.1 °F 29.9 in NNW 1.6 mph 10.7 mph 59% 0 in 12 W/m2
17:11 61.2 °F 47.7 °F 29.9 in NNW 3.8 mph 10.7 mph 61% 0 in 6 W/m2
17:16 60.8 °F 47.7 °F 29.9 in NW 6.9 mph 9.8 mph 62% 0 in 4 W/m2
17:21 60.4 °F 47.8 °F 29.9 in NNW 3.1 mph 9.8 mph 63% 0 in 1 W/m2
17:26 60.1 °F 47.8 °F 29.9 in NNW 3.8 mph 9.8 mph 64% 0 in 0 W/m2
17:31 60.1 °F 47.8 °F 29.9 in NNW 4.5 mph 9.8 mph 64% 0 in 0 W/m2
17:35 59.7 °F 47.5 °F 29.9 in NW 3.1 mph 9.8 mph 64% 0 in 0 W/m2
17:40 59.4 °F 47.7 °F 29.9 in NNW 4.5 mph 8.3 mph 65% 0 in 0 W/m2
17:45 59.2 °F 47.5 °F 29.9 in NNW 2.2 mph 7.6 mph 65% 0 in 0 W/m2
17:50 59 °F 47.3 °F 29.9 in NNW 3.8 mph 7.6 mph 65% 0 in 0 W/m2
17:56 58.8 °F 47.8 °F 29.9 in NNW 4.5 mph 8.3 mph 67% 0 in 0 W/m2
18:01 58.6 °F 47.7 °F 29.9 in NNW 4.5 mph 8.3 mph 67% 0 in 0 W/m2
18:06 58.8 °F 47.5 °F 29.9 in NNW 3.1 mph 6.9 mph 66% 0 in 0 W/m2
18:11 58.8 °F 47.5 °F 29.9 in NNW 3.1 mph 6.9 mph 66% 0 in 0 W/m2
18:16 58.5 °F 47.7 °F 29.9 in North 3.1 mph 6 mph 67% 0 in 0 W/m2
18:21 58.1 °F 47.7 °F 29.9 in North 1.6 mph 5.4 mph 68% 0 in 0 W/m2
18:26 58.1 °F 47.1 °F 29.9 in North 0.7 mph 6 mph 67% 0 in 0 W/m2
18:31 58.1 °F 47.1 °F 29.9 in North 3.1 mph 6 mph 67% 0 in 0 W/m2
18:36 57.9 °F 46.9 °F 29.9 in Calm   5.4 mph 67% 0 in 0 W/m2
18:41 57.6 °F 46.8 °F 29.9 in Calm   4.5 mph 67% 0 in 0 W/m2
18:47 57.2 °F 46.4 °F 29.9 in North 1.6 mph 3.8 mph 67% 0 in 0 W/m2
18:52 57.2 °F 46.4 °F 29.9 in NNW 0.7 mph 3.1 mph 67% 0 in 0 W/m2
18:57 57 °F 46.6 °F 29.9 in Calm   3.1 mph 68% 0 in 0 W/m2
19:02 56.7 °F 46.2 °F 29.9 in NNW 0.7 mph 2.2 mph 68% 0 in 0 W/m2
19:07 56.7 °F 46.6 °F 29.9 in Calm   1.6 mph 69% 0 in 0 W/m2
19:12 56.8 °F 46.4 °F 29.9 in Calm   1.6 mph 68% 0 in 0 W/m2
19:13 57 °F 46.6 °F 29.9 in Calm   1.6 mph 68% 0 in 0 W/m2
19:18 56.7 °F 46.2 °F 29.9 in Calm     68% 0 in 0 W/m2
19:23 56.3 °F 46.2 °F 29.9 in Calm     69% 0 in 0 W/m2
19:28 55.9 °F 46.2 °F 29.9 in NW 0.7 mph 3.1 mph 70% 0 in 0 W/m2
19:33 55.9 °F 46.2 °F 29.9 in Calm   3.8 mph 70% 0 in 0 W/m2
19:43 55.4 °F 46.6 °F 29.9 in Calm   5.4 mph 72% 0 in 0 W/m2
19:48 55.4 °F 46.9 °F 29.9 in Calm   3.1 mph 73% 0 in 0 W/m2
19:53 55.4 °F 46.9 °F 29.9 in Calm   3.1 mph 73% 0 in 0 W/m2
19:58 55.2 °F 46.8 °F 29.9 in Calm   0.7 mph 73% 0 in 0 W/m2
20:03 55.2 °F 46.8 °F 29.9 in East 0.7 mph 1.6 mph 73% 0 in 0 W/m2
20:08 55.2 °F 46.8 °F 29.9 in Calm   4.5 mph 73% 0 in 0 W/m2
20:13 55 °F 46.6 °F 29.9 in Calm   4.5 mph 73% 0 in 0 W/m2
20:19 55 °F 46.6 °F 29.9 in Calm   3.8 mph 73% 0 in 0 W/m2
20:25 55.4 °F 46.6 °F 29.9 in Calm   3.8 mph 72% 0 in 0 W/m2
20:30 55.4 °F 46.6 °F 29.9 in Calm   3.1 mph 72% 0 in 0 W/m2
20:35 55.8 °F 46.6 °F 29.9 in Calm   5.4 mph 71% 0 in 0 W/m2
20:40 56.1 °F 46.6 °F 29.9 in Calm   5.4 mph 70% 0 in 0 W/m2
20:46 55.9 °F 46.2 °F 29.9 in Calm   3.1 mph 70% 0 in 0 W/m2
20:51 55.9 °F 45.9 °F 29.9 in Calm   3.1 mph 69% 0 in 0 W/m2
20:56 56.1 °F 46 °F 29.9 in NNE 0.7 mph 3.1 mph 69% 0 in 0 W/m2
21:01 55.9 °F 45.9 °F 29.9 in NNW 1.6 mph 3.8 mph 69% 0 in 0 W/m2
21:06 56.1 °F 46 °F 29.9 in North 2.2 mph 4.5 mph 69% 0 in 0 W/m2
21:11 56.3 °F 46.2 °F 29.9 in NNE 2.2 mph 5.4 mph 69% 0 in 0 W/m2
21:16 56.8 °F 46.4 °F 29.9 in North 3.8 mph 6 mph 68% 0 in 0 W/m2
21:21 57.4 °F 46 °F 29.9 in NNW 5.4 mph 7.6 mph 66% 0 in 0 W/m2
21:26 58.1 °F 46.4 °F 29.9 in North 4.5 mph 11.4 mph 65% 0 in 0 W/m2
21:31 58.3 °F 46.2 °F 29.9 in NNW 3.1 mph 11.4 mph 64% 0 in 0 W/m2
21:36 58.5 °F 46.2 °F 29.9 in NNW 3.8 mph 8.3 mph 64% 0 in 0 W/m2
21:41 58.6 °F 46.6 °F 29.9 in NW 7.6 mph 9.8 mph 64% 0 in 0 W/m2
21:47 59 °F 46.4 °F 29.9 in NW 3.8 mph 9.8 mph 63% 0 in 0 W/m2
21:52 59.2 °F 46.6 °F 29.9 in NW 5.4 mph 9.8 mph 63% 0 in 0 W/m2
22:10 59.2 °F 46.6 °F 29.9 in NNW 6.9 mph 11.4 mph 63% 0 in 0 W/m2
22:16 59.4 °F 46.8 °F 29.9 in NNW 8.3 mph 12.1 mph 63% 0 in 0 W/m2
22:21 59.4 °F 46.8 °F 29.9 in NW 8.3 mph 12.1 mph 63% 0 in 0 W/m2
22:26 59.4 °F 46.8 °F 29.9 in NNW 5.4 mph 12.1 mph 63% 0 in 0 W/m2
22:31 59.4 °F 46.8 °F 29.9 in NNW 3.8 mph 12.1 mph 63% 0 in 0 W/m2
22:36 59.4 °F 46.8 °F 29.9 in NNW 5.4 mph 12.1 mph 63% 0 in 0 W/m2
22:41 59.4 °F 47.1 °F 29.9 in NNW 6 mph 10.7 mph 64% 0 in 0 W/m2
22:46 59.4 °F 47.1 °F 29.9 in NNW 6.9 mph 10.7 mph 64% 0 in 0 W/m2
22:51 59.5 °F 47.5 °F 29.9 in NNW 5.4 mph 12.1 mph 64% 0 in 0 W/m2
22:56 59.5 °F 47.5 °F 29.9 in NNW 6.9 mph 14.5 mph 64% 0 in 0 W/m2
23:01 59.5 °F 47.5 °F 29.8 in NNW 6 mph 14.5 mph 64% 0 in 0 W/m2
23:06 59.4 °F 47.7 °F 29.8 in NNW 6.9 mph 12.1 mph 65% 0 in 0 W/m2
23:11 59.4 °F 47.7 °F 29.8 in NNW 7.6 mph 12.1 mph 65% 0 in 0 W/m2
23:16 59.7 °F 47.5 °F 29.8 in NNW 8.3 mph 19 mph 64% 0 in 0 W/m2
23:21 59.9 °F 47.7 °F 29.8 in NNW 6.9 mph 19 mph 64% 0 in 0 W/m2
23:26 59.9 °F 48 °F 29.8 in NNW 9.2 mph 15.9 mph 65% 0 in 0 W/m2
23:31 59.9 °F 48 °F 29.8 in NNW 9.2 mph 19.7 mph 65% 0 in 0 W/m2
23:36 59.7 °F 47.8 °F 29.8 in NNW 9.2 mph 19.7 mph 65% 0 in 0 W/m2
23:41 59.9 °F 48 °F 29.8 in NNW 12.1 mph 18.3 mph 65% 0 in 0 W/m2
23:46 59.9 °F 48 °F 29.8 in North 12.1 mph 18.3 mph 65% 0 in 0 W/m2
23:51 60.1 °F 48.4 °F 29.8 in North 8.3 mph 19.7 mph 65% 0 in 0 W/m2
23:56 60.1 °F 48.7 °F 29.8 in NNW 6.9 mph 22.1 mph 66% 0 in 0 W/m2
Northern Hawkes Bay. New Zealand Historic Data
Compliments of Weather Underground - 2.25 mb